createdAt,value
2018-03-02T00:00:02.309Z,26.00
2018-03-02T00:01:02.451Z,26.30
2018-03-02T00:02:02.589Z,33.20
2018-03-02T00:03:02.729Z,29.10
2018-03-02T00:04:02.874Z,31.50
2018-03-02T00:05:03.020Z,30.20
2018-03-02T00:06:03.166Z,31.80
2018-03-02T00:07:03.314Z,30.80
2018-03-02T00:08:03.444Z,31.90
2018-03-02T00:09:03.585Z,33.70
2018-03-02T00:10:03.751Z,32.20
2018-03-02T00:11:03.872Z,31.60
2018-03-02T00:12:04.011Z,33.60
2018-03-02T00:13:04.160Z,30.70
2018-03-02T00:14:04.304Z,30.40
2018-03-02T00:15:04.442Z,28.20
2018-03-02T00:16:04.592Z,29.50
2018-03-02T00:17:04.728Z,30.70
2018-03-02T00:18:04.875Z,29.70
2018-03-02T00:19:05.012Z,30.30
2018-03-02T00:20:05.148Z,28.20
2018-03-02T00:21:05.296Z,30.50
2018-03-02T00:22:05.437Z,32.50
2018-03-02T00:23:05.575Z,30.50
2018-03-02T00:24:05.718Z,30.20
2018-03-02T00:25:05.863Z,30.30
2018-03-02T00:26:06.004Z,30.10
2018-03-02T00:27:06.146Z,33.30
2018-03-02T00:28:06.296Z,30.60
2018-03-02T00:29:06.447Z,32.60
2018-03-02T00:30:06.593Z,32.40
2018-03-02T00:31:06.719Z,34.40
2018-03-02T00:32:06.862Z,30.00
2018-03-02T00:33:07.003Z,33.40
2018-03-02T00:34:07.146Z,30.80
2018-03-02T00:35:07.287Z,31.70
2018-03-02T00:36:07.423Z,32.20
2018-03-02T00:37:07.570Z,33.80
2018-03-02T00:38:07.710Z,25.80
2018-03-02T00:39:07.850Z,31.90
2018-03-02T00:40:07.995Z,36.30
2018-03-02T00:41:08.145Z,28.70
2018-03-02T00:42:08.283Z,32.90
2018-03-02T00:43:08.422Z,30.90
2018-03-02T00:44:08.573Z,27.90
2018-03-02T00:45:08.704Z,32.80
2018-03-02T00:46:08.846Z,34.50
2018-03-02T00:47:08.989Z,28.70
2018-03-02T00:48:09.177Z,32.70
2018-03-02T00:49:09.274Z,29.60
2018-03-02T00:50:09.426Z,34.00
2018-03-02T00:52:09.701Z,33.60
2018-03-02T00:53:09.846Z,26.70
2018-03-02T00:54:09.987Z,34.20
2018-03-02T00:55:10.127Z,32.50
2018-03-02T00:56:10.268Z,31.70
2018-03-02T00:57:10.413Z,32.70
2018-03-02T00:58:10.554Z,27.70
2018-03-02T00:59:10.699Z,32.90
2018-03-02T01:00:10.837Z,29.50
2018-03-02T01:01:10.981Z,33.80
2018-03-02T01:02:11.148Z,33.40
2018-03-02T01:03:11.271Z,33.00
2018-03-02T01:04:11.412Z,31.60
2018-03-02T01:05:11.556Z,26.50
2018-03-02T01:06:11.699Z,29.50
2018-03-02T01:07:11.832Z,31.10
2018-03-02T01:08:11.974Z,32.90
2018-03-02T01:09:12.123Z,34.70
2018-03-02T01:10:12.260Z,31.20
2018-03-02T01:11:12.401Z,29.70
2018-03-02T01:12:12.537Z,30.00
2018-03-02T01:13:12.685Z,27.20
2018-03-02T01:14:12.816Z,33.90
2018-03-02T01:15:12.962Z,31.80
2018-03-02T01:16:13.105Z,32.80
2018-03-02T01:17:13.239Z,36.00
2018-03-02T01:18:13.380Z,32.40
2018-03-02T01:19:13.524Z,35.40
2018-03-02T01:20:13.668Z,27.60
2018-03-02T01:21:13.806Z,34.70
2018-03-02T01:22:13.950Z,34.10
2018-03-02T01:23:14.094Z,34.30
2018-03-02T01:24:14.231Z,30.90
2018-03-02T01:25:14.381Z,32.20
2018-03-02T01:26:14.514Z,34.30
2018-03-02T01:27:14.660Z,35.30
2018-03-02T01:28:14.800Z,35.40
2018-03-02T01:29:14.940Z,28.20
2018-03-02T01:30:15.084Z,27.00
2018-03-02T01:31:15.230Z,36.20
2018-03-02T01:32:15.367Z,32.70
2018-03-02T01:33:15.508Z,29.50
2018-03-02T01:34:15.659Z,34.80
2018-03-02T01:35:15.793Z,36.60
2018-03-02T01:36:15.938Z,37.30
2018-03-02T01:37:16.080Z,33.00
2018-03-02T01:38:16.225Z,32.70
2018-03-02T01:39:16.356Z,35.20
2018-03-02T01:40:16.497Z,33.70
2018-03-02T01:41:16.643Z,35.60
2018-03-02T01:42:16.781Z,31.40
2018-03-02T01:43:16.925Z,35.50
2018-03-02T01:44:17.060Z,30.60
2018-03-02T01:45:17.209Z,35.60
2018-03-02T01:46:17.345Z,32.20
2018-03-02T01:47:17.487Z,33.90
2018-03-02T01:48:17.640Z,36.30
2018-03-02T01:49:17.772Z,34.80
2018-03-02T01:50:17.913Z,31.80
2018-03-02T01:51:18.055Z,32.10
2018-03-02T01:52:18.198Z,30.10
2018-03-02T01:53:18.341Z,26.60
2018-03-02T01:54:18.486Z,30.50
2018-03-02T01:55:18.626Z,34.30
2018-03-02T01:56:18.768Z,31.10
2018-03-02T01:57:18.914Z,31.10
2018-03-02T01:58:19.054Z,32.90
2018-03-02T01:59:19.202Z,34.00
2018-03-02T02:00:19.339Z,32.20
2018-03-02T02:01:19.482Z,32.00
2018-03-02T02:02:19.619Z,32.00
2018-03-02T02:03:19.765Z,32.10
2018-03-02T02:04:19.904Z,33.40
2018-03-02T02:05:20.048Z,30.20
2018-03-02T02:06:20.187Z,32.50
2018-03-02T02:07:20.329Z,33.10
2018-03-02T02:08:20.472Z,30.80
2018-03-02T02:09:20.616Z,35.10
2018-03-02T02:10:20.756Z,33.20
2018-03-02T02:11:20.897Z,28.50
2018-03-02T02:12:21.036Z,37.30
2018-03-02T02:13:21.173Z,37.80
2018-03-02T02:14:21.316Z,29.80
2018-03-02T02:15:21.449Z,36.10
2018-03-02T02:16:21.595Z,28.70
2018-03-02T02:17:21.990Z,33.40
2018-03-02T02:18:21.879Z,35.60
2018-03-02T02:19:22.018Z,37.10
2018-03-02T02:20:22.422Z,32.50
2018-03-02T02:21:22.307Z,34.30
2018-03-02T02:22:22.445Z,33.40
2018-03-02T02:23:22.598Z,30.20
2018-03-02T02:24:22.736Z,33.40
2018-03-02T02:25:22.867Z,36.80
2018-03-02T02:26:23.012Z,32.90
2018-03-02T02:27:23.156Z,38.40
2018-03-02T02:28:23.295Z,32.40
2018-03-02T02:29:23.443Z,34.90
2018-03-02T02:30:23.583Z,36.40
2018-03-02T02:31:23.724Z,35.90
2018-03-02T02:32:23.869Z,38.30
2018-03-02T02:33:24.026Z,38.00
2018-03-02T02:34:24.156Z,33.80
2018-03-02T02:35:24.291Z,36.70
2018-03-02T02:36:24.432Z,37.60
2018-03-02T02:37:24.574Z,28.30
2018-03-02T02:38:24.716Z,36.70
2018-03-02T02:39:24.863Z,32.90
2018-03-02T02:40:25.001Z,38.20
2018-03-02T02:41:25.142Z,34.50
2018-03-02T02:42:25.282Z,32.10
2018-03-02T02:43:25.423Z,36.30
2018-03-02T02:44:25.628Z,33.30
2018-03-02T02:45:25.714Z,34.50
2018-03-02T02:46:25.847Z,35.40
2018-03-02T02:47:25.997Z,35.30
2018-03-02T02:48:26.140Z,35.90
2018-03-02T02:49:26.278Z,36.00
2018-03-02T02:50:26.417Z,34.10
2018-03-02T02:51:26.574Z,36.40
2018-03-02T02:52:26.709Z,35.60
2018-03-02T02:53:26.838Z,36.40
2018-03-02T02:54:26.984Z,33.00
2018-03-02T02:55:27.121Z,37.40
2018-03-02T02:56:27.264Z,32.40
2018-03-02T02:57:27.406Z,36.80
2018-03-02T02:58:27.546Z,37.40
2018-03-02T02:59:27.770Z,31.50
2018-03-02T03:00:27.838Z,36.40
2018-03-02T03:01:27.979Z,35.20
2018-03-02T03:02:28.119Z,34.90
2018-03-02T03:03:28.259Z,35.80
2018-03-02T03:04:28.401Z,35.00
2018-03-02T03:05:28.542Z,33.20
2018-03-02T03:06:28.678Z,35.40
2018-03-02T03:07:28.821Z,35.00
2018-03-02T03:08:28.960Z,34.00
2018-03-02T03:09:29.105Z,29.60
2018-03-02T03:10:29.245Z,38.50
2018-03-02T03:11:29.643Z,38.00
2018-03-02T03:12:29.540Z,30.60
2018-03-02T03:13:29.683Z,35.10
2018-03-02T03:15:29.959Z,31.50
2018-03-02T03:16:30.110Z,36.10
2018-03-02T03:17:30.245Z,42.80
2018-03-02T03:18:30.388Z,32.50
2018-03-02T03:19:30.527Z,37.90
2018-03-02T03:20:30.671Z,30.20
2018-03-02T03:21:30.811Z,33.60
2018-03-02T03:22:30.959Z,32.20
2018-03-02T03:23:31.100Z,43.10
2018-03-02T03:24:31.244Z,40.00
2018-03-02T03:25:31.387Z,33.00
2018-03-02T03:26:31.526Z,30.80
2018-03-02T03:27:31.663Z,39.70
2018-03-02T03:28:31.801Z,37.20
2018-03-02T03:29:31.950Z,34.80
2018-03-02T03:30:32.086Z,37.70
2018-03-02T03:31:32.228Z,32.90
2018-03-02T03:32:32.376Z,36.50
2018-03-02T03:33:32.515Z,36.60
2018-03-02T03:34:32.654Z,39.10
2018-03-02T03:35:32.801Z,41.80
2018-03-02T03:36:32.937Z,33.20
2018-03-02T03:37:33.085Z,35.80
2018-03-02T03:38:33.224Z,37.80
2018-03-02T03:39:33.361Z,41.50
2018-03-02T03:40:33.506Z,41.50
2018-03-02T03:41:33.945Z,36.20
2018-03-02T03:42:33.787Z,33.60
2018-03-02T03:43:33.929Z,37.40
2018-03-02T03:44:34.072Z,33.50
2018-03-02T03:45:34.206Z,32.60
2018-03-02T03:46:34.351Z,39.20
2018-03-02T03:47:34.771Z,31.10
2018-03-02T03:48:34.632Z,35.90
2018-03-02T03:49:34.771Z,30.10
2018-03-02T03:50:34.914Z,34.70
2018-03-02T03:51:35.056Z,40.00
2018-03-02T03:52:35.195Z,41.20
2018-03-02T03:53:35.342Z,39.40
2018-03-02T03:54:35.487Z,36.10
2018-03-02T03:55:35.621Z,33.00
2018-03-02T03:56:36.020Z,38.50
2018-03-02T03:57:35.906Z,39.20
2018-03-02T03:58:36.049Z,37.80
2018-03-02T03:59:36.195Z,36.40
2018-03-02T04:00:36.325Z,35.90
2018-03-02T04:01:36.468Z,38.90
2018-03-02T04:02:36.610Z,39.00
2018-03-02T04:03:36.751Z,31.90
2018-03-02T04:04:36.891Z,40.40
2018-03-02T04:05:37.032Z,39.80
2018-03-02T04:06:37.180Z,42.40
2018-03-02T04:07:37.338Z,29.50
2018-03-02T04:08:37.463Z,36.60
2018-03-02T04:09:37.601Z,26.50
2018-03-02T04:10:37.740Z,34.40
2018-03-02T04:11:37.879Z,30.70
2018-03-02T04:12:38.023Z,37.70
2018-03-02T04:13:38.212Z,35.90
2018-03-02T04:14:38.306Z,36.80
2018-03-02T04:15:38.444Z,38.70
2018-03-02T04:16:38.590Z,33.40
2018-03-02T04:17:38.725Z,37.60
2018-03-02T04:18:38.873Z,34.90
2018-03-02T04:19:39.012Z,46.10
2018-03-02T04:20:39.151Z,36.40
2018-03-02T04:21:39.290Z,37.10
2018-03-02T04:22:39.436Z,41.00
2018-03-02T04:23:39.576Z,35.90
2018-03-02T04:24:39.718Z,31.10
2018-03-02T04:25:39.862Z,33.00
2018-03-02T04:26:39.997Z,36.80
2018-03-02T04:27:40.141Z,37.30
2018-03-02T04:28:40.283Z,38.60
2018-03-02T04:29:40.419Z,36.10
2018-03-02T04:30:40.561Z,34.50
2018-03-02T04:31:40.702Z,36.90
2018-03-02T04:32:40.847Z,28.10
2018-03-02T04:33:40.997Z,37.10
2018-03-02T04:34:41.128Z,34.80
2018-03-02T04:35:41.268Z,37.50
2018-03-02T04:36:41.408Z,34.60
2018-03-02T04:37:41.558Z,39.10
2018-03-02T04:38:41.705Z,38.60
2018-03-02T04:39:41.835Z,28.80
2018-03-02T04:40:41.984Z,37.20
2018-03-02T04:41:42.122Z,37.50
2018-03-02T04:42:42.266Z,41.10
2018-03-02T04:43:42.407Z,33.50
2018-03-02T04:44:42.549Z,44.20
2018-03-02T04:45:42.691Z,35.00
2018-03-02T04:46:42.838Z,42.50
2018-03-02T04:47:42.986Z,40.80
2018-03-02T04:48:43.136Z,41.00
2018-03-02T04:49:43.277Z,38.30
2018-03-02T04:50:43.423Z,42.90
2018-03-02T04:51:43.555Z,38.10
2018-03-02T04:52:43.707Z,40.10
2018-03-02T04:53:43.838Z,46.20
2018-03-02T04:54:43.978Z,42.10
2018-03-02T04:55:44.122Z,42.00
2018-03-02T04:56:44.263Z,39.80
2018-03-02T04:57:44.406Z,40.30
2018-03-02T04:58:44.547Z,35.00
2018-03-02T04:59:44.689Z,34.30
2018-03-02T05:00:44.833Z,39.80
2018-03-02T05:01:44.972Z,38.30
2018-03-02T05:02:45.122Z,40.90
2018-03-02T05:03:45.258Z,41.90
2018-03-02T05:04:45.395Z,43.60
2018-03-02T05:05:45.543Z,37.30
2018-03-02T05:06:45.683Z,38.80
2018-03-02T05:07:45.820Z,41.50
2018-03-02T05:08:45.965Z,40.10
2018-03-02T05:09:46.110Z,39.50
2018-03-02T05:10:46.248Z,35.00
2018-03-02T05:11:46.396Z,34.70
2018-03-02T05:12:46.537Z,43.50
2018-03-02T05:13:46.675Z,35.30
2018-03-02T05:14:46.817Z,40.10
2018-03-02T05:15:46.954Z,50.00
2018-03-02T05:16:47.096Z,39.40
2018-03-02T05:17:47.239Z,46.20
2018-03-02T05:18:47.382Z,46.20
2018-03-02T05:19:47.530Z,44.80
2018-03-02T05:20:47.667Z,46.40
2018-03-02T05:21:47.807Z,46.50
2018-03-02T05:22:47.956Z,42.00
2018-03-02T05:23:48.093Z,41.20
2018-03-02T05:24:48.233Z,48.80
2018-03-02T05:25:48.375Z,45.90
2018-03-02T05:26:48.520Z,44.90
2018-03-02T05:27:48.658Z,35.00
2018-03-02T05:28:48.796Z,40.50
2018-03-02T05:29:48.935Z,42.20
2018-03-02T05:30:49.073Z,38.30
2018-03-02T05:31:49.219Z,41.10
2018-03-02T05:32:49.361Z,36.40
2018-03-02T05:33:49.501Z,39.10
2018-03-02T05:34:49.639Z,40.50
2018-03-02T05:35:49.771Z,41.40
2018-03-02T05:36:49.917Z,44.60
2018-03-02T05:37:50.058Z,43.30
2018-03-02T05:38:50.199Z,44.10
2018-03-02T05:39:50.345Z,43.20
2018-03-02T05:40:50.483Z,35.20
2018-03-02T05:41:50.626Z,42.20
2018-03-02T05:42:50.770Z,33.00
2018-03-02T05:43:50.906Z,43.10
2018-03-02T05:44:51.051Z,41.90
2018-03-02T05:45:51.221Z,40.70
2018-03-02T05:46:51.330Z,31.00
2018-03-02T05:47:51.480Z,44.80
2018-03-02T05:48:51.614Z,34.70
2018-03-02T05:49:51.754Z,45.60
2018-03-02T05:50:51.901Z,42.60
2018-03-02T05:51:52.038Z,36.20
2018-03-02T05:52:52.182Z,39.80
2018-03-02T05:53:52.321Z,42.10
2018-03-02T05:54:52.464Z,42.60
2018-03-02T05:55:52.604Z,43.80
2018-03-02T05:56:52.759Z,41.10
2018-03-02T05:57:52.891Z,48.60
2018-03-02T05:58:53.031Z,42.10
2018-03-02T05:59:53.171Z,42.00
2018-03-02T06:00:53.315Z,33.90
2018-03-02T06:01:53.449Z,40.30
2018-03-02T06:02:53.586Z,38.90
2018-03-02T06:03:53.735Z,45.40
2018-03-02T06:04:53.878Z,44.90
2018-03-02T06:05:54.033Z,46.20
2018-03-02T06:06:54.164Z,48.00
2018-03-02T06:07:54.324Z,43.00
2018-03-02T06:08:54.442Z,37.80
2018-03-02T06:09:54.589Z,43.40
2018-03-02T06:10:54.732Z,42.00
2018-03-02T06:11:54.887Z,40.50
2018-03-02T06:12:55.008Z,36.20
2018-03-02T06:13:55.145Z,43.30
2018-03-02T06:14:55.286Z,41.80
2018-03-02T06:15:55.429Z,38.30
2018-03-02T06:16:55.573Z,46.20
2018-03-02T06:17:55.720Z,45.40
2018-03-02T06:18:55.856Z,42.20
2018-03-02T06:19:56.263Z,45.50
2018-03-02T06:20:56.139Z,40.60
2018-03-02T06:21:56.284Z,44.30
2018-03-02T06:22:56.417Z,38.60
2018-03-02T06:23:56.563Z,36.90
2018-03-02T06:24:56.700Z,40.00
2018-03-02T06:25:56.849Z,41.20
2018-03-02T06:26:57.002Z,39.50
2018-03-02T06:27:57.125Z,44.10
2018-03-02T06:28:57.266Z,41.80
2018-03-02T06:29:57.415Z,42.10
2018-03-02T06:30:57.551Z,43.10
2018-03-02T06:31:57.689Z,36.40
2018-03-02T06:32:57.834Z,41.60
2018-03-02T06:33:57.977Z,43.60
2018-03-02T06:35:58.258Z,39.50
2018-03-02T06:36:58.400Z,39.90
2018-03-02T06:37:58.544Z,40.60
2018-03-02T06:38:58.687Z,40.70
2018-03-02T06:39:58.831Z,47.40
2018-03-02T06:40:58.973Z,45.50
2018-03-02T06:41:59.122Z,39.30
2018-03-02T06:42:59.257Z,41.00
2018-03-02T06:43:59.398Z,43.00
2018-03-02T06:44:59.548Z,40.30
2018-03-02T06:45:59.684Z,45.20
2018-03-02T06:46:59.826Z,45.00
2018-03-02T06:47:59.962Z,38.00
2018-03-02T06:49:00.111Z,42.30
2018-03-02T06:51:00.377Z,45.50
2018-03-02T06:52:00.516Z,48.80
2018-03-02T06:53:00.660Z,30.30
2018-03-02T06:54:00.803Z,41.60
2018-03-02T06:55:00.946Z,33.10
2018-03-02T06:56:01.087Z,42.60
2018-03-02T06:57:01.231Z,46.80
2018-03-02T06:58:01.372Z,42.10
2018-03-02T06:59:01.517Z,38.80
2018-03-02T07:00:01.657Z,35.90
2018-03-02T07:01:01.795Z,40.50
2018-03-02T07:02:02.446Z,38.70
2018-03-02T07:03:02.088Z,38.50
2018-03-02T07:04:02.222Z,37.20
2018-03-02T07:05:02.387Z,44.50
2018-03-02T07:06:02.505Z,45.80
2018-03-02T07:07:02.650Z,51.90
2018-03-02T07:08:02.790Z,35.70
2018-03-02T07:09:02.929Z,45.90
2018-03-02T07:10:03.081Z,37.00
2018-03-02T07:11:03.214Z,43.00
2018-03-02T07:12:03.353Z,45.70
2018-03-02T07:13:03.496Z,45.20
2018-03-02T07:14:03.642Z,44.90
2018-03-02T07:15:03.785Z,44.20
2018-03-02T07:16:03.921Z,47.90
2018-03-02T07:17:04.398Z,48.50
2018-03-02T07:18:04.211Z,35.70
2018-03-02T07:19:04.360Z,42.80
2018-03-02T07:20:04.501Z,33.30
2018-03-02T07:21:04.644Z,40.80
2018-03-02T07:22:04.781Z,43.50
2018-03-02T07:23:04.916Z,46.00
2018-03-02T07:24:05.067Z,49.80
2018-03-02T07:25:05.203Z,41.80
2018-03-02T07:26:05.625Z,50.00
2018-03-02T07:27:05.479Z,39.10
2018-03-02T07:28:05.627Z,45.10
2018-03-02T07:29:06.047Z,43.00
2018-03-02T07:30:05.911Z,43.90
2018-03-02T07:31:06.056Z,37.80
2018-03-02T07:32:06.470Z,43.70
2018-03-02T07:33:06.337Z,47.00
2018-03-02T07:34:06.481Z,42.30
2018-03-02T07:35:06.626Z,43.80
2018-03-02T07:36:06.760Z,44.80
2018-03-02T07:37:06.906Z,39.80
2018-03-02T07:38:07.043Z,46.90
2018-03-02T07:39:07.184Z,49.50
2018-03-02T07:40:07.329Z,47.60
2018-03-02T07:41:07.736Z,37.70
2018-03-02T07:42:07.610Z,40.60
2018-03-02T07:43:07.754Z,40.20
2018-03-02T07:44:08.168Z,41.30
2018-03-02T07:45:08.038Z,42.10
2018-03-02T07:46:08.183Z,48.60
2018-03-02T07:47:08.593Z,49.50
2018-03-02T07:48:08.475Z,49.40
2018-03-02T07:49:08.610Z,36.40
2018-03-02T07:50:08.748Z,39.10
2018-03-02T07:51:08.890Z,44.70
2018-03-02T07:52:09.033Z,45.80
2018-03-02T07:53:09.185Z,48.10
2018-03-02T07:54:09.322Z,46.30
2018-03-02T07:55:09.457Z,44.60
2018-03-02T07:56:09.601Z,36.80
2018-03-02T07:57:09.742Z,43.10
2018-03-02T07:58:09.881Z,40.70
2018-03-02T07:59:10.021Z,45.40
2018-03-02T08:00:10.171Z,39.60
2018-03-02T08:01:10.313Z,38.40
2018-03-02T08:02:10.456Z,41.10
2018-03-02T08:03:10.609Z,41.80
2018-03-02T08:04:10.742Z,41.70
2018-03-02T08:05:10.888Z,41.70
2018-03-02T08:06:11.030Z,37.80
2018-03-02T08:07:11.171Z,32.10
2018-03-02T08:08:11.314Z,37.00
2018-03-02T08:09:11.505Z,40.90
2018-03-02T08:10:11.603Z,37.90
2018-03-02T08:11:11.995Z,41.70
2018-03-02T08:12:11.888Z,40.20
2018-03-02T08:13:12.034Z,36.50
2018-03-02T08:14:12.425Z,40.90
2018-03-02T08:15:12.322Z,40.10
2018-03-02T08:16:12.487Z,43.20
2018-03-02T08:17:12.620Z,41.50
2018-03-02T08:18:12.752Z,39.20
2018-03-02T08:19:12.898Z,44.70
2018-03-02T08:20:13.040Z,38.80
2018-03-02T08:21:13.189Z,35.90
2018-03-02T08:22:13.337Z,39.40
2018-03-02T08:23:13.488Z,45.30
2018-03-02T08:24:13.631Z,41.90
2018-03-02T08:25:13.765Z,43.70
2018-03-02T08:26:14.164Z,44.60
2018-03-02T08:27:14.062Z,43.10
2018-03-02T08:28:14.204Z,40.70
2018-03-02T08:29:14.359Z,38.30
2018-03-02T08:30:14.498Z,43.00
2018-03-02T08:31:14.639Z,42.00
2018-03-02T08:32:14.785Z,39.20
2018-03-02T08:33:14.927Z,38.50
2018-03-02T08:34:15.082Z,37.70
2018-03-02T08:35:15.226Z,41.80
2018-03-02T08:36:15.371Z,32.60
2018-03-02T08:37:15.522Z,40.60
2018-03-02T08:38:15.660Z,39.90
2018-03-02T08:39:15.813Z,38.40
2018-03-02T08:40:15.955Z,35.90
2018-03-02T08:42:16.248Z,39.50
2018-03-02T08:43:16.391Z,40.70
2018-03-02T08:44:16.539Z,41.40
2018-03-02T08:45:16.685Z,41.00
2018-03-02T08:46:16.829Z,41.60
2018-03-02T08:47:16.978Z,42.30
2018-03-02T08:48:17.194Z,43.00
2018-03-02T08:49:17.265Z,44.80
2018-03-02T08:50:17.400Z,48.10
2018-03-02T08:51:17.551Z,36.30
2018-03-02T08:52:17.695Z,42.10
2018-03-02T08:53:17.845Z,40.30
2018-03-02T08:54:17.989Z,39.70
2018-03-02T08:55:18.136Z,45.30
2018-03-02T08:56:18.298Z,44.20
2018-03-02T08:57:18.414Z,40.40
2018-03-02T08:58:18.564Z,39.10
2018-03-02T08:59:18.707Z,39.90
2018-03-02T09:00:18.882Z,41.30
2018-03-02T09:01:19.047Z,42.30
2018-03-02T09:02:19.201Z,43.40
2018-03-02T09:03:19.347Z,44.40
2018-03-02T09:04:19.487Z,40.00
2018-03-02T09:05:19.631Z,46.00
2018-03-02T09:06:19.783Z,41.90
2018-03-02T09:07:19.938Z,45.50
2018-03-02T09:08:20.077Z,45.40
2018-03-02T09:09:20.237Z,36.70
2018-03-02T09:10:20.371Z,41.40
2018-03-02T09:11:20.508Z,44.90
2018-03-02T09:12:20.656Z,40.80
2018-03-02T09:13:20.797Z,42.80
2018-03-02T09:14:20.946Z,34.90
2018-03-02T09:15:21.095Z,42.90
2018-03-02T09:16:21.365Z,44.70
2018-03-02T09:17:21.409Z,45.60
2018-03-02T09:18:21.562Z,39.80
2018-03-02T09:19:21.691Z,39.90
2018-03-02T09:20:21.838Z,45.90
2018-03-02T09:21:21.985Z,44.70
2018-03-02T09:22:22.107Z,38.10
2018-03-02T09:23:22.272Z,45.60
2018-03-02T09:24:22.411Z,47.10
2018-03-02T09:25:22.571Z,34.80
2018-03-02T09:26:22.692Z,40.90
2018-03-02T09:27:22.837Z,41.50
2018-03-02T09:28:23.008Z,41.00
2018-03-02T09:29:23.152Z,43.40
2018-03-02T09:30:23.293Z,46.10
2018-03-02T09:31:23.443Z,42.90
2018-03-02T09:32:23.598Z,39.80
2018-03-02T09:33:23.739Z,41.30
2018-03-02T09:34:23.883Z,42.90
2018-03-02T09:35:24.029Z,43.40
2018-03-02T09:36:24.172Z,46.30
2018-03-02T09:37:24.319Z,38.90
2018-03-02T09:38:24.465Z,42.90
2018-03-02T09:39:24.611Z,38.70
2018-03-02T09:40:24.758Z,40.00
2018-03-02T09:41:24.903Z,40.50
2018-03-02T09:42:25.051Z,39.90
2018-03-02T09:43:25.190Z,44.50
2018-03-02T09:44:25.348Z,40.80
2018-03-02T09:45:25.481Z,45.10
2018-03-02T09:46:25.625Z,47.80
2018-03-02T09:47:25.769Z,42.70
2018-03-02T09:48:25.914Z,45.30
2018-03-02T09:49:26.067Z,42.70
2018-03-02T09:50:26.209Z,44.90
2018-03-02T09:51:26.351Z,43.30
2018-03-02T09:52:26.498Z,40.70
2018-03-02T09:53:26.645Z,37.70
2018-03-02T09:54:26.789Z,43.20
2018-03-02T09:55:26.938Z,41.10
2018-03-02T09:56:27.083Z,38.90
2018-03-02T09:57:27.229Z,41.80
2018-03-02T09:58:27.371Z,42.40
2018-03-02T09:59:27.517Z,47.20
2018-03-02T10:00:27.676Z,47.10
2018-03-02T10:01:27.812Z,47.70
2018-03-02T10:02:27.960Z,45.50
2018-03-02T10:03:28.105Z,49.40
2018-03-02T10:04:28.240Z,46.60
2018-03-02T10:05:28.388Z,49.00
2018-03-02T10:06:28.537Z,46.80
2018-03-02T10:07:28.679Z,51.80
2018-03-02T10:08:28.828Z,47.50
2018-03-02T10:09:28.971Z,44.30
2018-03-02T10:10:29.110Z,46.90
2018-03-02T10:11:29.318Z,45.30
2018-03-02T10:12:29.650Z,44.30
2018-03-02T10:13:29.556Z,46.10
2018-03-02T10:14:29.716Z,46.90
2018-03-02T10:15:29.849Z,46.60
2018-03-02T10:16:29.990Z,46.10
2018-03-02T10:17:30.144Z,42.50
2018-03-02T10:19:30.420Z,42.30
2018-03-02T10:20:30.565Z,45.50
2018-03-02T10:21:30.713Z,44.90
2018-03-02T10:22:30.857Z,44.00
2018-03-02T10:23:31.006Z,39.90
2018-03-02T10:24:31.150Z,43.40
2018-03-02T10:25:31.299Z,46.00
2018-03-02T10:26:31.448Z,45.80
2018-03-02T10:27:31.606Z,40.30
2018-03-02T10:28:31.737Z,48.20
2018-03-02T10:29:31.884Z,38.60
2018-03-02T10:30:32.033Z,43.40
2018-03-02T10:31:32.175Z,45.50
2018-03-02T10:32:32.321Z,46.10
2018-03-02T10:34:32.611Z,48.50
2018-03-02T10:35:32.755Z,46.90
2018-03-02T10:36:32.899Z,42.20
2018-03-02T10:37:33.046Z,47.70
2018-03-02T10:38:33.192Z,47.00
2018-03-02T10:39:33.337Z,45.70
2018-03-02T10:40:33.491Z,49.90
2018-03-02T10:41:33.640Z,44.80
2018-03-02T10:42:33.780Z,41.00
2018-03-02T10:43:33.922Z,46.50
2018-03-02T10:44:34.075Z,45.70
2018-03-02T10:45:34.221Z,39.40
2018-03-02T10:46:34.362Z,47.30
2018-03-02T10:47:34.506Z,49.20
2018-03-02T10:48:34.650Z,39.80
2018-03-02T10:49:34.800Z,49.40
2018-03-02T10:50:34.943Z,46.50
2018-03-02T10:51:35.089Z,44.80
2018-03-02T10:52:35.254Z,45.70
2018-03-02T10:53:35.413Z,48.20
2018-03-02T10:54:35.562Z,41.40
2018-03-02T10:55:35.713Z,39.80
2018-03-02T10:56:35.857Z,37.00
2018-03-02T10:57:36.000Z,39.20
2018-03-02T10:58:36.160Z,49.00
2018-03-02T10:59:36.289Z,43.60
2018-03-02T11:00:36.436Z,42.90
2018-03-02T11:01:36.584Z,49.00
2018-03-02T11:02:36.727Z,43.50
2018-03-02T11:03:36.871Z,33.60
2018-03-02T11:04:37.017Z,38.00
2018-03-02T11:05:37.162Z,38.90
2018-03-02T11:06:37.311Z,40.00
2018-03-02T11:07:37.450Z,33.10
2018-03-02T11:08:37.596Z,42.30
2018-03-02T11:09:37.751Z,43.20
2018-03-02T11:10:37.886Z,45.60
2018-03-02T11:11:38.033Z,48.00
2018-03-02T11:12:38.181Z,42.40
2018-03-02T11:13:38.324Z,40.10
2018-03-02T11:14:38.469Z,38.80
2018-03-02T11:15:38.616Z,41.50
2018-03-02T11:16:38.759Z,41.20
2018-03-02T11:17:38.907Z,43.20
2018-03-02T11:18:39.052Z,43.20
2018-03-02T11:19:39.203Z,45.40
2018-03-02T11:20:39.349Z,45.10
2018-03-02T11:21:39.493Z,43.30
2018-03-02T11:22:39.638Z,42.10
2018-03-02T11:23:39.786Z,40.90
2018-03-02T11:24:39.929Z,39.30
2018-03-02T11:25:40.079Z,47.50
2018-03-02T11:26:40.224Z,45.20
2018-03-02T11:27:40.368Z,47.80
2018-03-02T11:28:40.515Z,46.90
2018-03-02T11:29:40.661Z,38.40
2018-03-02T11:30:40.809Z,44.00
2018-03-02T11:31:40.958Z,45.90
2018-03-02T11:32:41.107Z,47.40
2018-03-02T11:33:41.255Z,45.90
2018-03-02T11:34:41.396Z,45.00
2018-03-02T11:35:41.551Z,43.80
2018-03-02T11:36:41.692Z,44.30
2018-03-02T11:37:41.833Z,42.80
2018-03-02T11:38:41.989Z,46.90
2018-03-02T11:39:42.139Z,36.90
2018-03-02T11:40:42.297Z,74.30
2018-03-02T11:41:42.424Z,42.50
2018-03-02T11:42:42.570Z,44.70
2018-03-02T11:43:42.724Z,45.00
2018-03-02T11:44:42.866Z,38.90
2018-03-02T11:45:43.036Z,39.60
2018-03-02T11:46:43.187Z,43.00
2018-03-02T11:47:43.327Z,45.00
2018-03-02T11:48:43.489Z,44.80
2018-03-02T11:49:43.646Z,38.40
2018-03-02T11:50:43.829Z,46.60
2018-03-02T11:51:43.920Z,43.30
2018-03-02T11:53:44.206Z,43.50
2018-03-02T11:54:44.385Z,45.20
2018-03-02T11:55:44.532Z,43.80
2018-03-02T11:56:44.667Z,45.70
2018-03-02T11:57:44.811Z,49.30
2018-03-02T11:58:44.954Z,46.50
2018-03-02T11:59:45.106Z,46.60
2018-03-02T12:00:45.248Z,47.40
2018-03-02T12:01:45.394Z,45.30
2018-03-02T12:02:45.561Z,38.10
2018-03-02T12:03:45.679Z,39.90
2018-03-02T12:05:45.979Z,42.30
2018-03-02T12:06:46.110Z,45.30
2018-03-02T12:08:46.397Z,44.00
2018-03-02T12:09:46.541Z,38.70
2018-03-02T12:10:46.692Z,36.20
2018-03-02T12:11:46.833Z,40.90
2018-03-02T12:12:46.992Z,38.50
2018-03-02T12:13:47.147Z,39.10
2018-03-02T12:14:47.278Z,41.60
2018-03-02T12:15:47.427Z,41.20
2018-03-02T12:16:47.645Z,39.60
2018-03-02T12:17:47.716Z,44.70
2018-03-02T12:18:47.867Z,43.50
2018-03-02T12:19:48.006Z,45.10
2018-03-02T12:20:48.154Z,43.70
2018-03-02T12:21:48.309Z,41.20
2018-03-02T12:22:48.514Z,39.80
2018-03-02T12:23:48.583Z,42.10
2018-03-02T12:24:48.732Z,43.70
2018-03-02T12:25:48.883Z,37.50
2018-03-02T12:26:49.037Z,44.60
2018-03-02T12:27:49.176Z,41.90
2018-03-02T12:28:49.319Z,40.50
2018-03-02T12:29:49.467Z,44.30
2018-03-02T12:30:49.615Z,41.70
2018-03-02T12:31:49.765Z,41.40
2018-03-02T12:32:49.919Z,42.20
2018-03-02T12:33:50.059Z,35.30
2018-03-02T12:34:50.205Z,44.60
2018-03-02T12:35:50.351Z,40.70
2018-03-02T12:36:50.509Z,37.20
2018-03-02T12:37:50.648Z,46.50
2018-03-02T12:38:50.869Z,41.10
2018-03-02T12:39:50.940Z,40.80
2018-03-02T12:40:51.086Z,39.10
2018-03-02T12:41:51.236Z,41.90
2018-03-02T12:42:51.387Z,37.80
2018-03-02T12:43:51.515Z,47.00
2018-03-02T12:44:51.665Z,44.60
2018-03-02T12:45:51.811Z,38.50
2018-03-02T12:46:51.958Z,33.10
2018-03-02T12:47:52.105Z,36.50
2018-03-02T12:48:52.266Z,42.40
2018-03-02T12:49:52.410Z,38.70
2018-03-02T12:50:52.547Z,37.90
2018-03-02T12:51:52.705Z,34.10
2018-03-02T12:52:52.841Z,39.50
2018-03-02T12:53:52.991Z,38.70
2018-03-02T12:54:53.138Z,36.90
2018-03-02T12:55:53.278Z,33.80
2018-03-02T12:56:53.429Z,34.70
2018-03-02T12:57:53.580Z,40.30
2018-03-02T12:58:53.722Z,33.60
2018-03-02T12:59:53.871Z,31.30
2018-03-02T13:00:54.021Z,36.50
2018-03-02T13:01:54.176Z,37.40
2018-03-02T13:02:54.312Z,43.00
2018-03-02T13:03:54.459Z,42.30